createdAt,value
2024-04-22T03:51:46.602Z,57.10
2024-04-22T03:54:16.424Z,58.50
2024-04-22T03:56:46.484Z,59.10
2024-04-22T03:59:13.770Z,59.40
2024-04-22T04:01:43.723Z,59.30
2024-04-22T04:04:10.949Z,60.40
2024-04-22T04:06:40.747Z,61.30
2024-04-22T04:09:10.368Z,62.10
2024-04-22T04:11:41.014Z,62.90
2024-04-22T04:14:08.687Z,64.00
2024-04-22T04:16:39.879Z,64.10
2024-04-22T04:19:06.936Z,64.30
2024-04-22T04:21:36.519Z,63.10
2024-04-22T04:24:03.939Z,64.10
2024-04-22T04:26:36.377Z,64.90
2024-04-22T04:29:03.364Z,65.70
2024-04-22T04:31:33.218Z,66.20
2024-04-22T04:34:00.293Z,67.10
2024-04-22T04:36:29.875Z,68.20
2024-04-22T04:38:56.851Z,67.20
2024-04-22T04:41:26.668Z,67.00
2024-04-22T04:43:56.225Z,64.90
2024-04-22T04:46:26.496Z,64.40
2024-04-22T04:48:54.053Z,64.50
2024-04-22T13:38:03.829Z,60.00
2024-04-22T13:55:12.265Z,79.40
2024-04-22T13:57:40.074Z,97.30
2024-04-22T14:00:14.082Z,93.40
2024-04-22T14:02:42.287Z,94.50
2024-04-22T14:05:11.996Z,93.10
2024-04-22T14:07:40.373Z,87.90
2024-04-22T14:10:12.829Z,80.20
2024-04-22T14:12:40.731Z,81.20
2024-04-22T14:15:11.142Z,80.30
2024-04-22T14:17:40.389Z,80.40
2024-04-22T14:20:12.395Z,82.50
2024-04-22T14:22:40.800Z,87.20
2024-04-22T14:25:13.074Z,90.50
2024-04-22T14:27:40.069Z,92.10
2024-04-22T14:30:10.723Z,94.20
2024-04-22T14:32:37.853Z,95.80
2024-04-22T14:35:08.275Z,97.20
2024-04-22T14:37:36.129Z,98.30
2024-04-22T14:40:06.274Z,99.90
2024-04-22T14:52:59.067Z,90.80
2024-04-22T14:55:26.200Z,94.90
2024-04-22T14:57:56.103Z,84.30
2024-04-22T15:00:23.076Z,70.40
2024-04-22T15:02:52.549Z,68.80
2024-04-22T15:05:19.619Z,64.20
2024-04-22T15:07:49.782Z,69.40
2024-04-22T15:10:19.468Z,76.50
2024-04-22T15:12:49.025Z,86.20
2024-04-22T15:15:17.324Z,90.00
2024-04-22T15:17:47.470Z,91.80
2024-04-22T15:20:14.555Z,93.50
2024-04-22T15:22:44.120Z,96.30
2024-04-22T15:25:11.134Z,97.50
2024-04-22T15:27:43.210Z,99.10
2024-04-22T15:30:10.811Z,99.90
2024-04-22T15:32:42.584Z,99.90
2024-04-22T15:35:10.113Z,99.90
2024-04-22T15:37:40.012Z,99.90
2024-04-22T15:57:37.116Z,87.70
2024-04-22T16:00:09.880Z,92.40
2024-04-22T16:02:43.272Z,85.20
2024-04-22T16:05:10.645Z,77.40
2024-04-22T18:12:50.070Z,1.00
2024-04-22T18:15:17.037Z,1.00
2024-04-22T18:17:47.122Z,1.00
2024-04-22T18:20:18.623Z,1.80
2024-04-22T18:22:51.166Z,5.30
2024-04-22T18:25:18.487Z,8.30
2024-04-22T18:27:51.023Z,11.40
2024-04-22T18:30:18.142Z,14.10
2024-04-22T18:32:47.749Z,17.60
2024-04-22T18:35:14.987Z,21.90
2024-04-22T18:37:44.520Z,24.80
2024-04-22T18:40:11.639Z,26.80
2024-04-22T18:42:41.257Z,28.20
2024-04-22T18:45:11.042Z,31.00
2024-04-22T18:47:40.954Z,34.00
2024-04-22T18:50:08.226Z,36.40
2024-04-22T18:52:37.781Z,37.30
2024-04-22T18:55:05.484Z,38.60
2024-04-22T18:57:35.373Z,39.70
2024-04-22T19:00:02.597Z,42.00
2024-04-22T19:02:34.776Z,44.10
2024-04-22T19:05:02.828Z,45.90
2024-04-22T19:07:32.858Z,46.20
2024-04-22T19:10:01.116Z,47.80
2024-04-22T19:12:32.029Z,49.00
2024-04-22T19:14:59.011Z,50.30
2024-04-22T19:17:28.823Z,51.50
2024-04-22T19:19:58.397Z,53.20
2024-04-22T19:22:29.147Z,54.00
2024-04-22T19:24:56.098Z,53.60
